createdAt,value
2018-01-29T00:00:00.351Z,7.01
2018-01-29T00:00:04.546Z,7.05
2018-01-29T00:00:08.437Z,7.08
2018-01-29T00:00:12.439Z,7.01
2018-01-29T00:00:16.226Z,7.05
2018-01-29T00:00:19.913Z,7.08
2018-01-29T00:00:23.821Z,6.99
2018-01-29T00:00:27.718Z,6.99
2018-01-29T00:00:31.612Z,7
2018-01-29T00:00:35.610Z,7.07
2018-01-29T00:00:39.610Z,6.97
2018-01-29T00:00:43.529Z,7.01
2018-01-29T00:00:47.421Z,6.99
2018-01-29T00:00:51.313Z,6.97
2018-01-29T00:00:55.206Z,7
2018-01-29T00:00:59.102Z,7
2018-01-29T00:01:03.246Z,6.99
2018-01-29T00:01:07.244Z,6.99
2018-01-29T00:01:11.449Z,7.05
2018-01-29T00:01:15.349Z,7
2018-01-29T00:01:19.351Z,7.04
2018-01-29T00:01:23.559Z,7.01
2018-01-29T00:01:27.723Z,6.97
2018-01-29T00:01:31.725Z,7.07
2018-01-29T00:01:35.618Z,6.97
2018-01-29T00:01:39.410Z,7.05
2018-01-29T00:01:43.203Z,7.01
2018-01-29T00:01:47.105Z,7.05
2018-01-29T00:01:51.317Z,7.09
2018-01-29T00:01:55.310Z,7.08
2018-01-29T00:01:59.311Z,7.08
2018-01-29T00:02:03.678Z,7.08
2018-01-29T00:02:07.577Z,6.99
2018-01-29T00:02:11.571Z,7.07
2018-01-29T00:02:15.464Z,7.04
2018-01-29T00:02:19.365Z,7.07
2018-01-29T00:02:23.151Z,7.05
2018-01-29T00:02:27.047Z,7.04
2018-01-29T00:02:31.043Z,7.04
2018-01-29T00:02:35.149Z,7.05
2018-01-29T00:02:39.146Z,7.07
2018-01-29T00:02:42.833Z,7.05
2018-01-29T00:02:46.727Z,6.99
2018-01-29T00:02:50.719Z,7.07
2018-01-29T00:02:54.402Z,7
2018-01-29T00:02:58.297Z,7.08
2018-01-29T00:03:02.424Z,7.11
2018-01-29T00:03:06.337Z,7.08
2018-01-29T00:03:10.337Z,7.09
2018-01-29T00:03:14.238Z,7.12
2018-01-29T00:03:18.027Z,7.14
2018-01-29T00:03:21.708Z,7.04
2018-01-29T00:03:25.808Z,7.15
2018-01-29T00:03:29.911Z,7.09
2018-01-29T00:03:34.018Z,7.12
2018-01-29T00:03:37.909Z,7.09
2018-01-29T00:03:41.696Z,7.16
2018-01-29T00:03:45.808Z,7.08
2018-01-29T00:03:49.702Z,7.11
2018-01-29T00:03:53.808Z,7.11
2018-01-29T00:03:57.808Z,7.14
2018-01-29T00:04:01.918Z,7.12
2018-01-29T00:04:05.975Z,7.08
2018-01-29T00:04:10.083Z,7.15
2018-01-29T00:04:14.297Z,7.09
2018-01-29T00:04:18.297Z,7.09
2018-01-29T00:04:22.295Z,7.11
2018-01-29T00:04:26.184Z,7.07
2018-01-29T00:04:30.404Z,7.08
2018-01-29T00:04:34.295Z,7.09
2018-01-29T00:04:38.233Z,7.09
2018-01-29T00:04:42.237Z,7.12
2018-01-29T00:04:46.129Z,7.07
2018-01-29T00:04:50.134Z,7.12
2018-01-29T00:04:53.927Z,7.12
2018-01-29T00:04:57.825Z,7.15
2018-01-29T00:05:01.716Z,7.12
2018-01-29T00:05:05.506Z,7.07
2018-01-29T00:05:09.195Z,7.05
2018-01-29T00:05:12.994Z,7.19
2018-01-29T00:05:16.887Z,7.09
2018-01-29T00:05:20.675Z,7.07
2018-01-29T00:05:24.463Z,7.07
2018-01-29T00:05:28.467Z,7.08
2018-01-29T00:05:32.782Z,7.08
2018-01-29T00:05:36.881Z,7.19
2018-01-29T00:05:40.875Z,7.07
2018-01-29T00:05:44.557Z,7.08
2018-01-29T00:05:48.342Z,7.21
2018-01-29T00:05:52.239Z,7.09
2018-01-29T00:05:56.130Z,7.09
2018-01-29T00:06:00.029Z,7.15
2018-01-29T00:06:04.028Z,7.08
2018-01-29T00:06:08.030Z,7.08
2018-01-29T00:06:12.035Z,7.05
2018-01-29T00:06:15.936Z,7.23
2018-01-29T00:06:19.828Z,7.11
2018-01-29T00:06:24.282Z,7.05
2018-01-29T00:06:28.292Z,7.18
2018-01-29T00:06:32.085Z,7.14
2018-01-29T00:06:35.976Z,7.23
2018-01-29T00:06:40.014Z,7.15
2018-01-29T00:06:43.973Z,7.09
2018-01-29T00:06:47.979Z,7.19
2018-01-29T00:06:51.876Z,7.18
2018-01-29T00:06:55.666Z,7.23
2018-01-29T00:06:59.467Z,7.18
2018-01-29T00:07:03.255Z,7.12
2018-01-29T00:07:07.044Z,7.27
2018-01-29T00:07:10.934Z,7.23
2018-01-29T00:07:14.724Z,7.14
2018-01-29T00:07:18.526Z,7.23
2018-01-29T00:07:22.625Z,7.19
2018-01-29T00:07:26.623Z,7.19
2018-01-29T00:07:30.732Z,7.27
2018-01-29T00:07:34.633Z,7.26
2018-01-29T00:07:38.422Z,7.27
2018-01-29T00:07:42.313Z,7.18
2018-01-29T00:07:46.203Z,7.21
2018-01-29T00:07:50.097Z,7.23
2018-01-29T00:07:53.996Z,7.23
2018-01-29T00:07:57.996Z,7.26
2018-01-29T00:08:01.784Z,7.23
2018-01-29T00:08:06.037Z,7.24
2018-01-29T00:08:10.040Z,7.23
2018-01-29T00:08:13.723Z,7.18
2018-01-29T00:08:17.623Z,7.18
2018-01-29T00:08:21.626Z,7.26
2018-01-29T00:08:25.580Z,7.26
2018-01-29T00:08:29.477Z,7.24
2018-01-29T00:08:33.369Z,7.27
2018-01-29T00:08:37.159Z,7.23
2018-01-29T00:08:41.158Z,7.27
2018-01-29T00:08:45.159Z,7.29
2018-01-29T00:08:49.263Z,7.24
2018-01-29T00:08:53.159Z,7.23
2018-01-29T00:08:57.273Z,7.26
2018-01-29T00:09:01.269Z,7.19
2018-01-29T00:09:05.163Z,7.27
2018-01-29T00:09:09.062Z,7.3
2018-01-29T00:09:12.960Z,7.24
2018-01-29T00:09:16.637Z,7.21
2018-01-29T00:09:20.426Z,7.3
2018-01-29T00:09:24.630Z,7.27
2018-01-29T00:09:28.527Z,7.3
2018-01-29T00:09:32.422Z,7.33
2018-01-29T00:09:36.319Z,7.29
2018-01-29T00:09:40.106Z,7.27
2018-01-29T00:09:44.003Z,7.24
2018-01-29T00:09:47.793Z,7.24
2018-01-29T00:09:51.591Z,7.33
2018-01-29T00:09:55.484Z,7.34
2018-01-29T00:09:59.379Z,7.29
2018-01-29T00:10:03.624Z,7.27
2018-01-29T00:10:07.623Z,7.29
2018-01-29T00:10:11.729Z,7.37
2018-01-29T00:10:15.629Z,7.33
2018-01-29T00:10:19.734Z,7.21
2018-01-29T00:10:23.515Z,7.3
2018-01-29T00:10:27.419Z,7.33
2018-01-29T00:10:31.516Z,7.32
2018-01-29T00:10:35.732Z,7.33
2018-01-29T00:10:39.741Z,7.3
2018-01-29T00:10:43.536Z,7.26
2018-01-29T00:10:47.435Z,7.33
2018-01-29T00:10:51.224Z,7.32
2018-01-29T00:10:55.120Z,7.29
2018-01-29T00:10:58.800Z,7.36
2018-01-29T00:11:02.808Z,7.36
2018-01-29T00:11:06.702Z,7.3
2018-01-29T00:11:10.604Z,7.34
2018-01-29T00:11:14.606Z,7.36
2018-01-29T00:11:18.500Z,7.39
2018-01-29T00:11:22.599Z,7.33
2018-01-29T00:11:26.499Z,7.32
2018-01-29T00:11:30.390Z,7.36
2018-01-29T00:11:34.075Z,7.3
2018-01-29T00:11:37.870Z,7.36
2018-01-29T00:11:41.769Z,7.39
2018-01-29T00:11:45.771Z,7.39
2018-01-29T00:11:49.805Z,7.39
2018-01-29T00:11:53.805Z,7.39
2018-01-29T00:11:57.695Z,7.34
2018-01-29T00:12:01.586Z,7.41
2018-01-29T00:12:05.481Z,7.32
2018-01-29T00:12:09.271Z,7.42
2018-01-29T00:12:13.266Z,7.39
2018-01-29T00:12:17.268Z,7.33
2018-01-29T00:12:21.264Z,7.45
2018-01-29T00:12:24.948Z,7.37
2018-01-29T00:12:28.740Z,7.41
2018-01-29T00:12:32.788Z,7.41
2018-01-29T00:12:36.578Z,7.42
2018-01-29T00:12:40.261Z,7.42
2018-01-29T00:12:44.150Z,7.34
2018-01-29T00:12:48.161Z,7.42
2018-01-29T00:12:52.053Z,7.41
2018-01-29T00:12:56.052Z,7.42
2018-01-29T00:13:00.048Z,7.44
2018-01-29T00:13:04.100Z,7.37
2018-01-29T00:13:08.099Z,7.37
2018-01-29T00:13:12.210Z,7.44
2018-01-29T00:13:16.104Z,7.45
2018-01-29T00:13:19.788Z,7.42
2018-01-29T00:13:23.784Z,7.36
2018-01-29T00:13:27.464Z,7.45
2018-01-29T00:13:31.363Z,7.41
2018-01-29T00:13:35.153Z,7.39
2018-01-29T00:13:39.050Z,7.41
2018-01-29T00:13:42.941Z,7.44
2018-01-29T00:13:46.834Z,7.36
2018-01-29T00:13:50.724Z,7.42
2018-01-29T00:13:54.516Z,7.5
2018-01-29T00:13:58.310Z,7.42
2018-01-29T00:14:02.257Z,7.45
2018-01-29T00:14:06.044Z,7.47
2018-01-29T00:14:09.831Z,7.48
2018-01-29T00:14:13.727Z,7.42
2018-01-29T00:14:17.720Z,7.39
2018-01-29T00:14:21.506Z,7.45
2018-01-29T00:14:25.397Z,7.48
2018-01-29T00:14:29.406Z,7.42
2018-01-29T00:14:33.300Z,7.47
2018-01-29T00:14:37.298Z,7.47
2018-01-29T00:14:41.300Z,7.5
2018-01-29T00:14:45.415Z,7.51
2018-01-29T00:14:49.315Z,7.51
2018-01-29T00:14:53.315Z,7.48
2018-01-29T00:14:57.314Z,7.47
2018-01-29T00:15:01.313Z,7.45
2018-01-29T00:15:05.215Z,7.41
2018-01-29T00:15:09.430Z,7.5
2018-01-29T00:15:13.323Z,7.51
2018-01-29T00:15:17.313Z,7.48
2018-01-29T00:15:21.106Z,7.5
2018-01-29T00:15:25.210Z,7.48
2018-01-29T00:15:29.102Z,7.54
2018-01-29T00:15:32.998Z,7.48
2018-01-29T00:15:36.995Z,7.47
2018-01-29T00:15:40.995Z,7.58
2018-01-29T00:15:44.996Z,7.42
2018-01-29T00:15:49.097Z,7.48
2018-01-29T00:15:53.198Z,7.51
2018-01-29T00:15:57.195Z,7.58
2018-01-29T00:16:01.297Z,7.48
2018-01-29T00:16:05.192Z,7.58
2018-01-29T00:16:09.095Z,7.52
2018-01-29T00:16:12.777Z,7.52
2018-01-29T00:16:16.567Z,7.5
2018-01-29T00:16:20.674Z,7.48
2018-01-29T00:16:24.574Z,7.55
2018-01-29T00:16:28.785Z,7.5
2018-01-29T00:16:32.785Z,7.52
2018-01-29T00:16:36.568Z,7.51
2018-01-29T00:16:40.568Z,7.54
2018-01-29T00:16:44.360Z,7.48
2018-01-29T00:16:48.154Z,7.52
2018-01-29T00:16:52.149Z,7.55
2018-01-29T00:16:56.255Z,7.55
2018-01-29T00:17:00.263Z,7.52
2018-01-29T00:17:04.265Z,7.52
2018-01-29T00:17:08.160Z,7.57
2018-01-29T00:17:12.263Z,7.57
2018-01-29T00:17:16.310Z,7.57
2018-01-29T00:17:20.105Z,7.6
2018-01-29T00:17:24.000Z,7.55
2018-01-29T00:17:27.895Z,7.54
2018-01-29T00:17:32.002Z,7.52
2018-01-29T00:17:36.006Z,7.58
2018-01-29T00:17:39.789Z,7.58
2018-01-29T00:17:43.579Z,7.6
2018-01-29T00:17:47.577Z,7.62
2018-01-29T00:17:51.261Z,7.57
2018-01-29T00:17:55.152Z,7.62
2018-01-29T00:17:59.047Z,7.51
2018-01-29T00:18:02.944Z,7.57
2018-01-29T00:18:06.999Z,7.6
2018-01-29T00:18:11.103Z,7.63
2018-01-29T00:18:14.888Z,7.63
2018-01-29T00:18:18.785Z,7.6
2018-01-29T00:18:22.573Z,7.66
2018-01-29T00:18:26.899Z,7.55
2018-01-29T00:18:30.789Z,7.62
2018-01-29T00:18:34.686Z,7.63
2018-01-29T00:18:38.474Z,7.58
2018-01-29T00:18:42.381Z,7.6
2018-01-29T00:18:46.274Z,7.63
2018-01-29T00:18:50.167Z,7.57
2018-01-29T00:18:54.172Z,7.62
2018-01-29T00:18:58.382Z,7.63
2018-01-29T00:19:02.482Z,7.67
2018-01-29T00:19:06.381Z,7.62
2018-01-29T00:19:10.169Z,7.67
2018-01-29T00:19:13.954Z,7.6
2018-01-29T00:19:17.957Z,7.62
2018-01-29T00:19:21.952Z,7.63
2018-01-29T00:19:25.850Z,7.58
2018-01-29T00:19:29.845Z,7.66
2018-01-29T00:19:33.955Z,7.63
2018-01-29T00:19:37.955Z,7.6
2018-01-29T00:19:41.957Z,7.55
2018-01-29T00:19:45.862Z,7.62
2018-01-29T00:19:49.902Z,7.63
2018-01-29T00:19:53.794Z,7.63
2018-01-29T00:19:57.798Z,7.6
2018-01-29T00:20:02.161Z,7.58
2018-01-29T00:20:06.165Z,7.62
2018-01-29T00:20:09.951Z,7.57
2018-01-29T00:20:13.954Z,7.63
2018-01-29T00:20:17.849Z,7.69
2018-01-29T00:20:21.642Z,7.74
2018-01-29T00:20:25.590Z,7.62
2018-01-29T00:20:29.697Z,7.67
2018-01-29T00:20:33.488Z,7.73
2018-01-29T00:20:37.379Z,7.62
2018-01-29T00:20:41.062Z,7.74
2018-01-29T00:20:44.959Z,7.7
2018-01-29T00:20:49.060Z,7.63
2018-01-29T00:20:53.054Z,7.6
2018-01-29T00:20:56.948Z,7.6
2018-01-29T00:21:01.058Z,7.63
2018-01-29T00:21:04.950Z,7.6
2018-01-29T00:21:08.845Z,7.71
2018-01-29T00:21:12.631Z,7.7
2018-01-29T00:21:16.527Z,7.7
2018-01-29T00:21:20.529Z,7.7
2018-01-29T00:21:24.425Z,7.57
2018-01-29T00:21:28.632Z,7.7
2018-01-29T00:21:32.631Z,7.69
2018-01-29T00:21:36.634Z,7.7
2018-01-29T00:21:40.322Z,7.7
2018-01-29T00:21:44.318Z,7.71
2018-01-29T00:21:48.324Z,7.74
2018-01-29T00:21:52.698Z,7.71
2018-01-29T00:21:56.740Z,7.71
2018-01-29T00:22:00.845Z,7.76
2018-01-29T00:22:04.640Z,7.71
2018-01-29T00:22:08.654Z,7.74
2018-01-29T00:22:12.756Z,7.71
2018-01-29T00:22:16.755Z,7.69
2018-01-29T00:22:20.438Z,7.73
2018-01-29T00:22:24.438Z,7.77
2018-01-29T00:22:28.540Z,7.74
2018-01-29T00:22:32.537Z,7.77
2018-01-29T00:22:36.427Z,7.6
2018-01-29T00:22:40.319Z,7.73
2018-01-29T00:22:44.106Z,7.69
2018-01-29T00:22:48.110Z,7.73
2018-01-29T00:22:52.112Z,7.82
2018-01-29T00:22:56.010Z,7.67
2018-01-29T00:22:59.950Z,7.79
2018-01-29T00:23:04.190Z,7.81
2018-01-29T00:23:08.192Z,7.76
2018-01-29T00:23:12.296Z,7.74
2018-01-29T00:23:16.409Z,7.79
2018-01-29T00:23:20.194Z,7.82
2018-01-29T00:23:24.289Z,7.82
2018-01-29T00:23:28.077Z,7.84
2018-01-29T00:23:32.073Z,7.79
2018-01-29T00:23:35.862Z,7.74
2018-01-29T00:23:39.757Z,7.81
2018-01-29T00:23:43.655Z,7.79
2018-01-29T00:23:47.760Z,7.67
2018-01-29T00:23:51.778Z,7.82
2018-01-29T00:23:55.772Z,7.74
2018-01-29T00:23:59.557Z,7.81
2018-01-29T00:24:03.242Z,7.77
2018-01-29T00:24:07.136Z,7.79
2018-01-29T00:24:11.134Z,7.7
2018-01-29T00:24:15.241Z,7.84
2018-01-29T00:24:19.343Z,7.85
2018-01-29T00:24:23.132Z,7.66
2018-01-29T00:24:26.921Z,7.82
2018-01-29T00:24:31.236Z,7.74
2018-01-29T00:24:34.922Z,7.67
2018-01-29T00:24:38.712Z,7.63
2018-01-29T00:24:42.712Z,7.76
2018-01-29T00:24:46.608Z,7.81
2018-01-29T00:24:50.708Z,7.82
2018-01-29T00:24:54.498Z,7.79
2018-01-29T00:24:58.393Z,7.66
2018-01-29T00:25:02.186Z,7.79
2018-01-29T00:25:06.394Z,7.82
2018-01-29T00:25:10.284Z,7.76
2018-01-29T00:25:14.075Z,7.63
2018-01-29T00:25:17.969Z,7.79
2018-01-29T00:25:21.862Z,7.82
2018-01-29T00:25:25.552Z,7.77
2018-01-29T00:25:29.658Z,7.76
2018-01-29T00:25:33.451Z,7.85
2018-01-29T00:25:37.348Z,7.77
2018-01-29T00:25:41.138Z,7.84
2018-01-29T00:25:44.816Z,7.69
2018-01-29T00:25:48.925Z,7.76
2018-01-29T00:25:52.816Z,7.67
2018-01-29T00:25:56.709Z,7.86
2018-01-29T00:26:00.709Z,7.74
2018-01-29T00:26:04.957Z,7.7
2018-01-29T00:26:08.956Z,7.7
2018-01-29T00:26:12.749Z,7.74
2018-01-29T00:26:16.856Z,7.79
2018-01-29T00:26:20.752Z,7.82
2018-01-29T00:26:24.853Z,7.76
2018-01-29T00:26:28.752Z,7.76
2018-01-29T00:26:32.861Z,7.81
2018-01-29T00:26:36.971Z,7.79
2018-01-29T00:26:40.758Z,7.85
2018-01-29T00:26:44.808Z,7.74
2018-01-29T00:26:48.708Z,7.79
2018-01-29T00:26:52.714Z,7.81
2018-01-29T00:26:56.924Z,7.79
2018-01-29T00:27:00.820Z,7.74
2018-01-29T00:27:04.958Z,7.76
2018-01-29T00:27:08.956Z,7.77
2018-01-29T00:27:12.743Z,7.79
2018-01-29T00:27:16.640Z,7.92
2018-01-29T00:27:20.643Z,7.73
2018-01-29T00:27:24.581Z,7.73
2018-01-29T00:27:28.424Z,7.76
2018-01-29T00:27:32.417Z,7.74
2018-01-29T00:27:36.427Z,7.76
2018-01-29T00:27:40.433Z,7.71
2018-01-29T00:27:44.227Z,7.82
2018-01-29T00:27:48.271Z,7.82
2018-01-29T00:27:52.270Z,7.66
2018-01-29T00:27:56.056Z,7.82
2018-01-29T00:27:59.967Z,7.82
2018-01-29T00:28:04.066Z,7.74
2018-01-29T00:28:07.859Z,7.84
2018-01-29T00:28:11.756Z,7.74
2018-01-29T00:28:15.801Z,7.81
2018-01-29T00:28:19.590Z,7.84
2018-01-29T00:28:23.490Z,7.77
2018-01-29T00:28:27.602Z,7.77
2018-01-29T00:28:31.489Z,7.77
2018-01-29T00:28:35.590Z,7.79
2018-01-29T00:28:39.588Z,7.77
2018-01-29T00:28:43.591Z,7.71
2018-01-29T00:28:47.275Z,7.71
2018-01-29T00:28:51.064Z,7.74
2018-01-29T00:28:54.955Z,7.85
2018-01-29T00:28:58.651Z,7.84
2018-01-29T00:29:03.060Z,7.81
2018-01-29T00:29:06.955Z,7.81
2018-01-29T00:29:10.641Z,7.71
2018-01-29T00:29:14.641Z,7.76
2018-01-29T00:29:18.445Z,7.79
2018-01-29T00:29:22.342Z,7.76
2018-01-29T00:29:26.027Z,7.76
2018-01-29T00:29:30.036Z,7.82
2018-01-29T00:29:34.141Z,7.81
2018-01-29T00:29:38.045Z,7.79
2018-01-29T00:29:41.939Z,7.76
2018-01-29T00:29:45.619Z,7.76
2018-01-29T00:29:49.411Z,7.79
2018-01-29T00:29:53.414Z,7.82
2018-01-29T00:29:57.303Z,7.74
2018-01-29T00:30:01.101Z,7.76
2018-01-29T00:30:05.421Z,7.76
2018-01-29T00:30:09.416Z,7.79
2018-01-29T00:30:13.415Z,7.79
2018-01-29T00:30:17.420Z,7.82
2018-01-29T00:30:21.313Z,7.77
2018-01-29T00:30:25.312Z,7.74
2018-01-29T00:30:29.314Z,7.79
2018-01-29T00:30:33.312Z,7.81
2018-01-29T00:30:36.997Z,7.76
2018-01-29T00:30:40.996Z,7.77
2018-01-29T00:30:45.011Z,7.76
2018-01-29T00:30:48.909Z,7.81
2018-01-29T00:30:52.803Z,7.79
2018-01-29T00:30:56.701Z,7.85
2018-01-29T00:31:32.803Z,7.81
2018-01-29T00:31:36.919Z,7.82
2018-01-29T00:31:40.814Z,7.79
2018-01-29T00:31:44.706Z,7.76
2018-01-29T00:31:48.920Z,7.84
2018-01-29T00:31:52.710Z,7.82
2018-01-29T00:31:56.817Z,7.74
2018-01-29T00:32:00.816Z,7.82
2018-01-29T00:32:04.720Z,7.76
2018-01-29T00:32:08.715Z,7.79
2018-01-29T00:32:12.612Z,7.84
2018-01-29T00:32:16.613Z,7.79
2018-01-29T00:32:20.298Z,7.79
2018-01-29T00:32:24.087Z,7.84
2018-01-29T00:32:27.871Z,7.81
2018-01-29T00:32:31.867Z,7.85
2018-01-29T00:32:35.872Z,7.85
2018-01-29T00:32:39.777Z,7.82
2018-01-29T00:32:43.467Z,7.84
2018-01-29T00:32:47.471Z,7.81
2018-01-29T00:32:51.582Z,7.82
2018-01-29T00:32:55.367Z,7.85
2018-01-29T00:32:59.159Z,7.81
2018-01-29T00:33:03.302Z,7.84
2018-01-29T00:33:07.200Z,7.76
2018-01-29T00:33:11.089Z,7.88
2018-01-29T00:33:14.773Z,7.77
2018-01-29T00:33:18.565Z,7.88
2018-01-29T00:33:22.253Z,7.85
2018-01-29T00:33:26.253Z,7.82
2018-01-29T00:33:30.252Z,7.79
2018-01-29T00:33:34.252Z,7.81
2018-01-29T00:33:38.355Z,7.79
2018-01-29T00:33:42.143Z,7.79
2018-01-29T00:33:46.142Z,7.84
2018-01-29T00:33:50.041Z,7.79
2018-01-29T00:33:53.723Z,7.82
2018-01-29T00:33:57.511Z,7.81
2018-01-29T00:34:01.405Z,7.82
2018-01-29T00:34:05.406Z,7.79
2018-01-29T00:34:09.091Z,7.79
2018-01-29T00:34:12.980Z,7.82
2018-01-29T00:34:16.776Z,7.82
2018-01-29T00:34:20.773Z,7.81
2018-01-29T00:34:24.667Z,7.81
2018-01-29T00:34:28.671Z,7.79
2018-01-29T00:34:32.679Z,7.79
2018-01-29T00:34:36.573Z,7.81
2018-01-29T00:34:40.370Z,7.79
2018-01-29T00:34:44.156Z,7.79
2018-01-29T00:34:48.052Z,7.84
2018-01-29T00:34:51.841Z,7.79
2018-01-29T00:34:55.959Z,7.76
2018-01-29T00:34:59.855Z,7.76
2018-01-29T00:35:03.798Z,7.82
2018-01-29T00:35:07.587Z,7.79
2018-01-29T00:35:11.581Z,7.77
2018-01-29T00:35:15.264Z,7.85
2018-01-29T00:35:19.049Z,7.81
2018-01-29T00:35:23.051Z,7.79
2018-01-29T00:35:26.737Z,7.82
2018-01-29T00:35:30.734Z,7.84
2018-01-29T00:35:34.736Z,7.81
2018-01-29T00:35:38.633Z,7.81
2018-01-29T00:35:42.422Z,7.81
2018-01-29T00:35:46.423Z,7.82
2018-01-29T00:35:50.204Z,7.82
2018-01-29T00:35:54.097Z,7.79
2018-01-29T00:35:57.782Z,7.81
2018-01-29T00:36:01.675Z,7.84
2018-01-29T00:36:05.673Z,7.79
2018-01-29T00:36:09.879Z,7.82
2018-01-29T00:36:13.983Z,7.81
2018-01-29T00:36:17.982Z,7.82
2018-01-29T00:36:21.985Z,7.82
2018-01-29T00:36:25.772Z,7.76
2018-01-29T00:36:29.872Z,7.81
2018-01-29T00:36:33.985Z,7.81
2018-01-29T00:36:37.982Z,7.79
2018-01-29T00:36:41.771Z,7.86
2018-01-29T00:36:45.879Z,7.81
2018-01-29T00:36:49.673Z,7.85
2018-01-29T00:36:53.570Z,7.79
2018-01-29T00:36:57.571Z,7.96
2018-01-29T00:37:01.678Z,7.88
2018-01-29T00:37:05.571Z,7.79
2018-01-29T00:37:09.359Z,7.95
2018-01-29T00:37:13.143Z,7.92
2018-01-29T00:37:17.098Z,7.84
2018-01-29T00:37:20.886Z,7.84
2018-01-29T00:37:24.672Z,7.82
2018-01-29T00:37:28.355Z,7.92
2018-01-29T00:37:32.151Z,7.89
2018-01-29T00:37:36.155Z,7.81
2018-01-29T00:37:39.944Z,7.95
2018-01-29T00:37:43.843Z,7.91
2018-01-29T00:37:47.731Z,7.91
2018-01-29T00:37:51.734Z,7.94
2018-01-29T00:37:55.731Z,7.85
2018-01-29T00:37:59.521Z,7.89
2018-01-29T00:38:03.556Z,7.89
2018-01-29T00:38:07.551Z,7.89
2018-01-29T00:38:11.444Z,7.91
2018-01-29T00:38:15.546Z,7.88
2018-01-29T00:38:19.700Z,7.84
2018-01-29T00:38:23.701Z,7.91
2018-01-29T00:38:27.383Z,7.89
2018-01-29T00:38:31.274Z,7.89
2018-01-29T00:38:35.494Z,7.91
2018-01-29T00:38:39.491Z,7.89
2018-01-29T00:38:43.490Z,7.92
2018-01-29T00:38:47.387Z,7.94
2018-01-29T00:38:51.287Z,7.89
2018-01-29T00:38:55.075Z,7.91
2018-01-29T00:38:58.872Z,7.99
2018-01-29T00:39:02.865Z,7.92
2018-01-29T00:39:06.755Z,7.91
2018-01-29T00:39:10.658Z,7.94
2018-01-29T00:39:14.652Z,7.96
2018-01-29T00:39:18.545Z,7.94
2018-01-29T00:39:22.338Z,7.96
2018-01-29T00:39:26.125Z,7.94
2018-01-29T00:39:29.918Z,7.92
2018-01-29T00:39:33.918Z,7.99
2018-01-29T00:39:37.812Z,7.91
2018-01-29T00:39:41.708Z,7.94
2018-01-29T00:39:45.645Z,8.04
2018-01-29T00:39:49.544Z,7.96
2018-01-29T00:39:53.543Z,7.91
2018-01-29T00:39:57.332Z,8.02
2018-01-29T00:40:01.235Z,7.96
2018-01-29T00:40:05.237Z,7.92
2018-01-29T00:40:09.135Z,8.02
2018-01-29T00:40:13.078Z,7.89
2018-01-29T00:40:17.076Z,7.92
2018-01-29T00:40:20.866Z,7.99
2018-01-29T00:40:24.754Z,7.92
2018-01-29T00:40:28.863Z,8.04
2018-01-29T00:40:32.857Z,8
2018-01-29T00:40:36.750Z,7.92
2018-01-29T00:40:40.541Z,8
2018-01-29T00:40:44.435Z,7.95
2018-01-29T00:40:48.644Z,7.96
2018-01-29T00:40:52.533Z,7.89
2018-01-29T00:40:56.529Z,7.94
2018-01-29T00:41:00.319Z,7.96
2018-01-29T00:41:04.354Z,8.03
2018-01-29T00:41:08.149Z,8.03
2018-01-29T00:41:12.250Z,8.02
2018-01-29T00:41:15.934Z,8.07
2018-01-29T00:41:19.624Z,8.02
2018-01-29T00:41:23.413Z,8.03
2018-01-29T00:41:27.205Z,8.02
2018-01-29T00:41:31.210Z,8.06
2018-01-29T00:41:35.104Z,8
2018-01-29T00:41:38.897Z,8.02
2018-01-29T00:41:42.793Z,8.06
2018-01-29T00:41:46.885Z,7.96
2018-01-29T00:41:50.671Z,8.03
2018-01-29T00:41:54.994Z,7.95
2018-01-29T00:41:58.899Z,8.04
2018-01-29T00:42:03.102Z,8.03
2018-01-29T00:42:06.893Z,8.07
2018-01-29T00:42:10.893Z,8.02
2018-01-29T00:42:14.783Z,8.02
2018-01-29T00:42:18.573Z,8.04
2018-01-29T00:42:22.570Z,8.04
2018-01-29T00:42:26.466Z,7.99
2018-01-29T00:42:30.463Z,8.03
2018-01-29T00:42:34.459Z,8.06
2018-01-29T00:42:38.457Z,8.02
2018-01-29T00:42:42.244Z,8.09
2018-01-29T00:42:45.931Z,8.07
2018-01-29T00:42:49.820Z,8
2018-01-29T00:42:53.709Z,8.04
2018-01-29T00:42:57.607Z,8.06
2018-01-29T00:43:01.402Z,8.09
2018-01-29T00:43:05.296Z,8.04
2018-01-29T00:43:09.347Z,8.07
2018-01-29T00:43:13.349Z,8.07
2018-01-29T00:43:17.134Z,8.07
2018-01-29T00:43:21.237Z,8.02
2018-01-29T00:43:25.133Z,8.06
2018-01-29T00:43:29.136Z,8.07
2018-01-29T00:43:33.032Z,8.07
2018-01-29T00:43:37.031Z,8.13
2018-01-29T00:43:40.923Z,8.04
2018-01-29T00:43:44.710Z,8.02
2018-01-29T00:43:48.496Z,8.09
2018-01-29T00:43:52.492Z,8.07
2018-01-29T00:43:56.487Z,8.07
2018-01-29T00:44:00.481Z,8.04
2018-01-29T00:44:04.466Z,8.07
2018-01-29T00:44:08.354Z,8.03
2018-01-29T00:44:12.349Z,8.06
2018-01-29T00:44:16.453Z,8.06
2018-01-29T00:44:20.340Z,8.12
2018-01-29T00:44:24.135Z,8.1
2018-01-29T00:44:28.037Z,8.13
2018-01-29T00:44:32.149Z,8.1
2018-01-29T00:44:36.147Z,8.09
2018-01-29T00:44:39.941Z,8.04
2018-01-29T00:44:43.727Z,8.09
2018-01-29T00:44:47.831Z,8.09
2018-01-29T00:44:51.724Z,8.13
2018-01-29T00:44:55.732Z,8.03
2018-01-29T00:44:59.518Z,8.12
2018-01-29T00:45:03.465Z,8.06
2018-01-29T00:45:07.248Z,8.14
2018-01-29T00:45:11.137Z,8.12
2018-01-29T00:45:15.239Z,8.06
2018-01-29T00:45:19.032Z,8.14
2018-01-29T00:45:22.813Z,8.14
2018-01-29T00:45:26.812Z,7.94
2018-01-29T00:45:30.809Z,8.1
2018-01-29T00:45:34.808Z,8.03
2018-01-29T00:45:38.700Z,8.06
2018-01-29T00:45:42.592Z,8.12
2018-01-29T00:45:46.481Z,8.07
2018-01-29T00:45:50.374Z,8.07
2018-01-29T00:45:54.164Z,8.12
2018-01-29T00:45:57.953Z,8.07
2018-01-29T00:46:01.751Z,8.06
2018-01-29T00:46:05.951Z,8.1
2018-01-29T00:46:09.735Z,8.09
2018-01-29T00:46:13.849Z,8.14
2018-01-29T00:46:17.747Z,8.07
2018-01-29T00:46:21.648Z,8.06
2018-01-29T00:46:25.546Z,8.12
2018-01-29T00:46:29.442Z,8.14
2018-01-29T00:46:33.336Z,8.06
2018-01-29T00:46:37.233Z,8.1
2018-01-29T00:46:41.238Z,8.02
2018-01-29T00:46:45.037Z,8.09
2018-01-29T00:46:49.251Z,8.07
2018-01-29T00:46:53.253Z,8.09
2018-01-29T00:46:57.358Z,8.12
2018-01-29T00:47:01.467Z,8.1
2018-01-29T00:47:05.251Z,8.06
2018-01-29T00:47:09.042Z,8.06
2018-01-29T00:47:12.936Z,8.1
2018-01-29T00:47:16.730Z,8.17
2018-01-29T00:47:20.517Z,8.03
2018-01-29T00:47:24.300Z,8.09
2018-01-29T00:47:28.085Z,8.1
2018-01-29T00:47:31.977Z,8.14
2018-01-29T00:47:35.662Z,8.14
2018-01-29T00:47:39.455Z,8.09
2018-01-29T00:47:43.350Z,8.07
2018-01-29T00:47:47.147Z,8.12
2018-01-29T00:47:51.141Z,8.06
2018-01-29T00:47:54.830Z,8.1
2018-01-29T00:47:58.831Z,8.09
2018-01-29T00:48:03.081Z,8.1
2018-01-29T00:48:07.180Z,8.07
2018-01-29T00:48:11.287Z,8.21
2018-01-29T00:48:15.076Z,8.1
2018-01-29T00:48:18.967Z,8.12
2018-01-29T00:48:22.859Z,8.04
2018-01-29T00:48:26.750Z,8.1
2018-01-29T00:48:30.861Z,8.18
2018-01-29T00:48:34.864Z,8.14
2018-01-29T00:48:38.975Z,8.14
2018-01-29T00:48:42.876Z,8.13
2018-01-29T00:48:46.681Z,8.18
2018-01-29T00:48:50.569Z,8.17
2018-01-29T00:48:54.359Z,8.09
2018-01-29T00:48:58.145Z,8.18
2018-01-29T00:49:01.931Z,8.13
2018-01-29T00:49:05.838Z,8.18
2018-01-29T00:49:09.630Z,8.12
2018-01-29T00:49:13.625Z,8.14
2018-01-29T00:49:17.520Z,8.18
2018-01-29T00:49:21.432Z,8.17
2018-01-29T00:49:25.327Z,8.24
2018-01-29T00:49:29.222Z,8.25
2018-01-29T00:49:33.325Z,8.17
2018-01-29T00:49:37.213Z,8.24
2018-01-29T00:49:41.107Z,8.18
2018-01-29T00:49:44.791Z,8.1
2018-01-29T00:49:48.810Z,8.22
2018-01-29T00:49:52.705Z,8.18
2018-01-29T00:49:56.599Z,8.12
2018-01-29T00:50:00.388Z,8.18
2018-01-29T00:50:04.282Z,8.21
2018-01-29T00:50:08.070Z,8.27
2018-01-29T00:50:11.859Z,8.21
2018-01-29T00:50:16.179Z,8.24
2018-01-29T00:50:20.180Z,8.25
2018-01-29T00:50:24.178Z,8.14
2018-01-29T00:50:28.283Z,8.18
2018-01-29T00:50:32.291Z,8.24
2018-01-29T00:50:36.187Z,8.17
2018-01-29T00:50:40.198Z,8.21
2018-01-29T00:50:44.086Z,8.24
2018-01-29T00:50:47.769Z,8.24
2018-01-29T00:50:51.775Z,8.25
2018-01-29T00:50:55.773Z,8.28
2018-01-29T00:51:00.131Z,8.24
2018-01-29T00:51:04.132Z,8.25
2018-01-29T00:51:08.037Z,8.24
2018-01-29T00:51:11.935Z,8.27
2018-01-29T00:51:16.151Z,8.22
2018-01-29T00:51:20.043Z,8.25
2018-01-29T00:51:23.836Z,8.22
2018-01-29T00:51:27.730Z,8.21
2018-01-29T00:51:31.732Z,8.24
2018-01-29T00:51:35.416Z,8.25
2018-01-29T00:51:39.310Z,8.18
2018-01-29T00:51:43.205Z,8.25
2018-01-29T00:51:47.208Z,8.18
2018-01-29T00:51:50.991Z,8.27
2018-01-29T00:51:54.883Z,8.27
2018-01-29T00:51:58.878Z,8.17
2018-01-29T00:52:02.937Z,8.27
2018-01-29T00:52:06.831Z,8.25
2018-01-29T00:52:10.834Z,8.27
2018-01-29T00:52:14.838Z,8.27
2018-01-29T00:52:18.739Z,8.24
2018-01-29T00:52:22.734Z,8.2
2018-01-29T00:52:26.526Z,8.31
2018-01-29T00:52:30.542Z,8.31
2018-01-29T00:52:34.539Z,8.27
2018-01-29T00:52:38.706Z,8.22
2018-01-29T00:52:42.491Z,8.22
2018-01-29T00:52:46.381Z,8.29
2018-01-29T00:52:50.271Z,8.25
2018-01-29T00:52:54.173Z,8.29
2018-01-29T00:52:58.173Z,8.24
2018-01-29T00:53:01.964Z,8.29